Time;durP1;ratioP1;P1;durP2;ratioP2;P2;SDS_P1;SDS_P2;PMS_P1;PMS_P2;Temp;Humidity;BMP_temperature;BMP_pressure;BME280_temperature;BME280_humidity;BME280_pressure;Samples;Min_cycle;Max_cycle;Signal;HPM_P1;HPM_P2
2023/01/26 00:04:44;;;;;;;20.20;16.55;;;;;;;;;;10297780;28;20074;-67
2023/01/26 00:09:42;;;;;;;25.73;18.90;;;;;;;;;;10300385;28;20062;-67
2023/01/26 00:14:52;;;;;;;25.27;18.05;;;;;;;;;;10301098;28;20071;-69
2023/01/26 00:19:51;;;;;;;23.27;17.77;;;;;;;;;;10301376;28;20080;-69
2023/01/26 00:24:49;;;;;;;26.10;18.55;;;;;;;;;;10338792;28;20425;-69
2023/01/26 00:29:48;;;;;;;26.40;18.70;;;;;;;;;;10341650;28;20106;-69
2023/01/26 00:34:46;;;;;;;26.40;17.50;;;;;;;;;;10334874;28;20083;-70
2023/01/26 00:39:45;;;;;;;25.15;18.48;;;;;;;;;;10348192;28;20493;-69
2023/01/26 00:44:44;;;;;;;29.08;19.38;;;;;;;;;;10341922;28;20072;-70
2023/01/26 00:49:43;;;;;;;29.58;19.85;;;;;;;;;;10339994;28;20525;-69
2023/01/26 00:54:42;;;;;;;25.83;19.95;;;;;;;;;;10340299;28;20513;-70
2023/01/26 00:59:41;;;;;;;24.67;18.27;;;;;;;;;;10351659;28;20072;-68
2023/01/26 01:04:39;;;;;;;28.02;19.48;;;;;;;;;;10338061;28;20063;-70
2023/01/26 01:09:37;;;;;;;25.92;18.08;;;;;;;;;;10341345;28;20063;-70
2023/01/26 01:14:36;;;;;;;23.40;16.90;;;;;;;;;;10330135;28;20044;-69
2023/01/26 01:19:35;;;;;;;23.40;17.67;;;;;;;;;;10341121;28;20072;-70
2023/01/26 01:24:34;;;;;;;30.23;19.60;;;;;;;;;;10344171;28;20063;-69
2023/01/26 01:29:32;;;;;;;23.90;18.45;;;;;;;;;;10345032;28;20064;-69
2023/01/26 01:34:30;;;;;;;30.25;20.40;;;;;;;;;;10351801;28;20044;-69
2023/01/26 01:39:30;;;;;;;28.15;19.75;;;;;;;;;;10355229;28;20076;-70
2023/01/26 01:44:28;;;;;;;28.98;19.48;;;;;;;;;;10347451;28;20041;-70
2023/01/26 01:49:28;;;;;;;26.90;18.48;;;;;;;;;;10346174;28;20067;-69
2023/01/26 01:54:29;;;;;;;26.60;19.17;;;;;;;;;;10345359;28;20074;-69
2023/01/26 01:59:29;;;;;;;29.20;20.42;;;;;;;;;;10341802;28;20087;-69
2023/01/26 02:04:27;;;;;;;37.50;22.25;;;;;;;;;;10341231;28;20501;-69
2023/01/26 02:14:48;;;;;;;29.58;20.23;;;;;;;;;;10290006;28;20458;-70
2023/01/26 02:19:50;;;;;;;30.42;21.52;;;;;;;;;;10334819;28;20083;-69
2023/01/26 02:24:49;;;;;;;26.67;19.23;;;;;;;;;;10324707;28;20082;-70
2023/01/26 02:29:49;;;;;;;31.23;20.10;;;;;;;;;;10339994;28;20416;-70
2023/01/26 02:34:47;;;;;;;26.80;18.52;;;;;;;;;;10341731;28;20083;-69
2023/01/26 02:39:49;;;;;;;28.95;19.27;;;;;;;;;;10318387;28;20072;-69
2023/01/26 02:44:50;;;;;;;27.10;20.67;;;;;;;;;;10336273;28;20079;-69
2023/01/26 02:49:49;;;;;;;28.70;19.48;;;;;;;;;;10341939;28;20064;-69
2023/01/26 03:00:08;;;;;;;30.10;21.23;;;;;;;;;;10320571;28;20087;-69
2023/01/26 03:05:07;;;;;;;32.28;21.33;;;;;;;;;;10335814;28;20461;-69
2023/01/26 03:10:05;;;;;;;25.48;19.65;;;;;;;;;;10334922;28;20072;-70
2023/01/26 03:31:09;;;;;;;25.95;18.85;;;;;;;;;;10240431;28;20507;-70
2023/01/26 03:36:08;;;;;;;31.42;19.67;;;;;;;;;;10301671;28;20076;-70
2023/01/26 03:56:57;;;;;;;;;;;;;;;;;;10339809;28;20647;-69
2023/01/26 04:12:30;;;;;;;;;;;;;;;;;;10338908;28;20528;-69
2023/01/26 04:23:02;;;;;;;25.25;19.27;;;;;;;;;;10322812;28;20040;-69
2023/01/26 04:28:00;;;;;;;28.48;19.67;;;;;;;;;;10323487;28;20083;-69
2023/01/26 04:33:01;;;;;;;31.20;19.98;;;;;;;;;;10320556;28;20552;-68
2023/01/26 04:37:59;;;;;;;35.25;22.98;;;;;;;;;;10329032;28;20076;-69
2023/01/26 04:42:58;;;;;;;35.90;25.35;;;;;;;;;;10332882;28;20048;-69
2023/01/26 04:47:56;;;;;;;31.67;22.25;;;;;;;;;;10318663;28;20543;-68
2023/01/26 04:52:57;;;;;;;33.72;24.00;;;;;;;;;;10334593;28;20048;-68
2023/01/26 04:57:57;;;;;;;34.80;27.27;;;;;;;;;;10331550;28;20068;-69
2023/01/26 05:02:55;;;;;;;40.50;29.35;;;;;;;;;;10350436;28;20071;-70
2023/01/26 05:07:54;;;;;;;28.50;19.20;;;;;;;;;;10340164;28;20084;-70
2023/01/26 05:12:55;;;;;;;34.42;24.88;;;;;;;;;;10346017;28;20505;-69
2023/01/26 05:18:03;;;;;;;33.40;21.42;;;;;;;;;;10330208;28;20044;-68
2023/01/26 05:23:21;;;;;;;32.63;21.25;;;;;;;;;;10348694;28;20067;-68
2023/01/26 05:28:39;;;;;;;33.67;22.80;;;;;;;;;;10362645;28;20641;-69
2023/01/26 05:33:38;;;;;;;31.90;20.95;;;;;;;;;;10330775;28;20076;-69
2023/01/26 05:38:38;;;;;;;36.38;26.30;;;;;;;;;;10339341;28;20086;-69
2023/01/26 05:43:36;;;;;;;31.75;22.83;;;;;;;;;;10339630;28;20416;-68
2023/01/26 05:48:44;;;;;;;34.22;23.20;;;;;;;;;;10346887;28;20080;-72
2023/01/26 05:53:42;;;;;;;35.28;22.55;;;;;;;;;;10348315;28;20067;-68
2023/01/26 05:58:41;;;;;;;33.30;21.65;;;;;;;;;;10348743;28;20106;-68
2023/01/26 06:03:40;;;;;;;33.40;23.45;;;;;;;;;;10351751;28;20076;-68
2023/01/26 06:08:40;;;;;;;36.47;24.50;;;;;;;;;;10367593;28;20075;-69
2023/01/26 06:14:12;;;;;;;37.47;24.52;;;;;;;;;;10303370;28;20123;-70
2023/01/26 06:19:11;;;;;;;33.55;23.23;;;;;;;;;;10364645;28;20083;-69
2023/01/26 06:24:13;;;;;;;34.03;22.10;;;;;;;;;;10348995;28;20077;-69
2023/01/26 06:29:16;;;;;;;41.47;24.60;;;;;;;;;;10338155;28;20084;-69
2023/01/26 06:34:14;;;;;;;52.63;29.77;;;;;;;;;;10339422;28;20081;-69
2023/01/26 06:39:15;;;;;;;38.20;24.92;;;;;;;;;;10323664;28;20546;-70
2023/01/26 06:44:18;;;;;;;49.47;30.10;;;;;;;;;;10336376;28;20059;-70
2023/01/26 06:49:16;;;;;;;41.47;25.52;;;;;;;;;;10334403;28;20082;-70
2023/01/26 06:54:16;;;;;;;40.08;24.73;;;;;;;;;;10329954;28;20079;-69
2023/01/26 06:59:41;;;;;;;50.43;30.07;;;;;;;;;;10334167;28;20084;-69
2023/01/26 07:04:44;;;;;;;54.50;29.85;;;;;;;;;;10340057;28;20088;-69
2023/01/26 07:09:43;;;;;;;44.33;27.75;;;;;;;;;;10341660;28;20067;-70
2023/01/26 07:14:42;;;;;;;38.40;25.67;;;;;;;;;;10338793;28;20095;-69
2023/01/26 07:19:40;;;;;;;41.92;25.83;;;;;;;;;;10339147;28;20128;-70
2023/01/26 07:24:38;;;;;;;38.70;25.10;;;;;;;;;;10338251;28;20071;-70
2023/01/26 07:29:38;;;;;;;39.83;25.80;;;;;;;;;;10344006;28;20049;-70
2023/01/26 07:34:37;;;;;;;40.45;25.88;;;;;;;;;;10341355;28;20075;-69
2023/01/26 07:39:36;;;;;;;37.22;25.33;;;;;;;;;;10300513;28;20084;-69
2023/01/26 07:44:35;;;;;;;39.38;26.40;;;;;;;;;;10290787;28;20071;-69
2023/01/26 07:49:35;;;;;;;43.55;26.58;;;;;;;;;;10299977;28;20509;-69
2023/01/26 07:54:34;;;;;;;36.40;23.83;;;;;;;;;;10300116;28;20077;-69
2023/01/26 07:59:33;;;;;;;39.70;27.65;;;;;;;;;;10302122;28;20072;-69
2023/01/26 08:04:32;;;;;;;37.90;25.27;;;;;;;;;;10310537;28;20078;-68
2023/01/26 08:09:31;;;;;;;43.97;28.42;;;;;;;;;;10300358;28;20071;-69
2023/01/26 08:14:30;;;;;;;48.00;28.85;;;;;;;;;;10303972;28;20044;-69
2023/01/26 08:19:43;;;;;;;45.90;29.50;;;;;;;;;;10297933;28;20087;-69
2023/01/26 08:24:42;;;;;;;39.67;26.17;;;;;;;;;;10301924;28;20071;-68
2023/01/26 08:29:40;;;;;;;40.90;28.45;;;;;;;;;;10301317;28;20082;-69
2023/01/26 08:34:38;;;;;;;35.83;24.23;;;;;;;;;;10295929;28;20068;-69
2023/01/26 08:39:37;;;;;;;38.30;26.15;;;;;;;;;;10344938;28;20108;-69
2023/01/26 08:44:36;;;;;;;36.83;24.65;;;;;;;;;;10339886;28;20552;-69
2023/01/26 08:49:35;;;;;;;30.15;22.25;;;;;;;;;;10365173;28;20074;-68
2023/01/26 08:54:34;;;;;;;36.05;25.20;;;;;;;;;;10372469;28;20063;-68
2023/01/26 08:59:32;;;;;;;33.25;22.13;;;;;;;;;;10367787;28;20072;-68
2023/01/26 09:04:31;;;;;;;23.38;18.58;;;;;;;;;;10373932;28;20749;-68
2023/01/26 09:09:30;;;;;;;28.63;20.73;;;;;;;;;;10370725;28;20079;-68
2023/01/26 09:14:28;;;;;;;32.10;23.35;;;;;;;;;;10371668;28;20072;-69
2023/01/26 09:19:26;;;;;;;31.90;24.05;;;;;;;;;;10352535;28;20071;-67
2023/01/26 09:24:29;;;;;;;38.97;27.40;;;;;;;;;;10359904;28;20492;-67
2023/01/26 09:29:28;;;;;;;33.72;23.98;;;;;;;;;;10346335;28;20094;-68
2023/01/26 09:34:27;;;;;;;43.63;29.77;;;;;;;;;;10364255;28;20064;-69
2023/01/26 09:39:28;;;;;;;41.53;26.15;;;;;;;;;;10360317;28;20076;-68
2023/01/26 09:44:30;;;;;;;46.17;28.25;;;;;;;;;;10360444;28;20516;-68
2023/01/26 09:49:33;;;;;;;50.75;29.65;;;;;;;;;;10358476;28;20075;-69
2023/01/26 09:54:33;;;;;;;43.88;26.55;;;;;;;;;;10359462;28;20075;-69
2023/01/26 09:59:36;;;;;;;36.13;23.80;;;;;;;;;;10341390;28;20075;-70
2023/01/26 10:04:37;;;;;;;37.63;26.00;;;;;;;;;;10365869;28;20068;-68
2023/01/26 10:09:39;;;;;;;47.80;28.92;;;;;;;;;;10377032;28;20492;-68
2023/01/26 10:14:40;;;;;;;44.58;27.40;;;;;;;;;;10364184;28;20150;-68
2023/01/26 10:19:42;;;;;;;45.63;28.70;;;;;;;;;;10371636;28;20143;-68
2023/01/26 10:24:41;;;;;;;46.00;30.65;;;;;;;;;;10376478;28;20071;-67
2023/01/26 10:29:41;;;;;;;57.95;34.72;;;;;;;;;;10378213;28;20067;-69
2023/01/26 10:34:41;;;;;;;45.88;32.13;;;;;;;;;;10355441;28;20078;-69
2023/01/26 10:39:56;;;;;;;56.42;33.65;;;;;;;;;;10376867;28;20133;-69
2023/01/26 10:44:56;;;;;;;41.05;28.13;;;;;;;;;;10365490;28;20067;-69
2023/01/26 10:50:12;;;;;;;61.80;35.33;;;;;;;;;;10369544;28;20063;-69
2023/01/26 10:55:10;;;;;;;67.65;38.55;;;;;;;;;;10358743;28;20075;-69
2023/01/26 11:00:20;;;;;;;52.03;31.30;;;;;;;;;;10361722;28;20575;-69
2023/01/26 11:05:20;;;;;;;60.60;33.42;;;;;;;;;;10364017;28;20078;-69
2023/01/26 11:10:20;;;;;;;55.90;32.15;;;;;;;;;;10347166;28;20575;-69
2023/01/26 11:15:20;;;;;;;52.15;31.13;;;;;;;;;;10359282;28;20083;-69
2023/01/26 11:20:38;;;;;;;51.00;30.75;;;;;;;;;;10362560;28;20068;-68
2023/01/26 11:25:54;;;;;;;41.58;27.02;;;;;;;;;;10352213;28;20052;-68
2023/01/26 11:31:03;;;;;;;52.60;34.45;;;;;;;;;;10371351;28;20067;-69
2023/01/26 11:36:05;;;;;;;54.58;32.70;;;;;;;;;;10370254;28;20477;-67
2023/01/26 11:41:18;;;;;;;50.97;33.50;;;;;;;;;;10369600;28;20075;-68
2023/01/26 11:46:24;;;;;;;46.70;30.10;;;;;;;;;;10368822;28;20083;-68
2023/01/26 11:51:29;;;;;;;51.17;29.67;;;;;;;;;;10369456;28;20093;-67
2023/01/26 11:56:34;;;;;;;46.63;27.15;;;;;;;;;;10362956;28;20063;-67
2023/01/26 12:01:38;;;;;;;42.53;28.02;;;;;;;;;;10360083;28;20080;-68
2023/01/26 12:06:37;;;;;;;43.38;27.15;;;;;;;;;;10361928;28;20067;-67
2023/01/26 12:11:39;;;;;;;45.53;25.77;;;;;;;;;;10361699;28;20067;-67
2023/01/26 12:16:43;;;;;;;45.78;29.15;;;;;;;;;;10362909;28;20098;-67
2023/01/26 12:21:43;;;;;;;42.15;27.52;;;;;;;;;;10362274;28;20072;-68
2023/01/26 12:26:43;;;;;;;48.08;31.90;;;;;;;;;;10336702;28;20068;-67
2023/01/26 12:31:47;;;;;;;59.08;36.30;;;;;;;;;;10350110;28;20508;-67
2023/01/26 12:36:56;;;;;;;61.83;38.72;;;;;;;;;;10363323;28;20086;-67
2023/01/26 12:42:00;;;;;;;65.43;40.28;;;;;;;;;;10359652;28;20075;-67
2023/01/26 12:47:04;;;;;;;75.65;44.10;;;;;;;;;;10363706;28;20071;-67
2023/01/26 12:52:06;;;;;;;57.90;36.88;;;;;;;;;;10364524;28;20112;-67
2023/01/26 12:57:06;;;;;;;54.10;34.15;;;;;;;;;;10364061;28;20055;-68
2023/01/26 13:02:11;;;;;;;54.78;31.25;;;;;;;;;;10364487;28;20072;-68
2023/01/26 13:07:24;;;;;;;59.88;33.67;;;;;;;;;;10364333;28;20118;-69
2023/01/26 13:12:41;;;;;;;59.85;32.10;;;;;;;;;;10361755;28;20094;-68
2023/01/26 13:17:51;;;;;;;51.80;32.63;;;;;;;;;;10362091;28;20097;-68
2023/01/26 13:22:49;;;;;;;55.25;32.78;;;;;;;;;;10351863;28;20068;-67
2023/01/26 13:27:55;;;;;;;57.97;31.50;;;;;;;;;;10368566;28;20071;-68
2023/01/26 13:33:01;;;;;;;52.17;31.92;;;;;;;;;;10349116;28;20059;-68
2023/01/26 13:38:04;;;;;;;50.72;32.28;;;;;;;;;;10373682;28;20079;-68
2023/01/26 13:43:06;;;;;;;41.38;25.90;;;;;;;;;;10372804;28;20087;-68
2023/01/26 13:48:23;;;;;;;52.30;30.93;;;;;;;;;;10372928;28;20480;-68
2023/01/26 13:53:32;;;;;;;45.60;28.45;;;;;;;;;;10372133;28;20079;-68
2023/01/26 13:58:30;;;;;;;53.40;34.45;;;;;;;;;;10374620;28;20591;-68
2023/01/26 14:03:30;;;;;;;39.80;25.80;;;;;;;;;;10374391;28;20074;-68
2023/01/26 14:08:29;;;;;;;35.92;25.85;;;;;;;;;;10356607;28;20051;-68
2023/01/26 14:13:31;;;;;;;36.80;26.73;;;;;;;;;;10360564;28;20063;-69
2023/01/26 14:18:31;;;;;;;38.75;25.92;;;;;;;;;;10361185;28;20489;-68
2023/01/26 14:23:30;;;;;;;62.83;36.40;;;;;;;;;;10370749;28;20488;-68
2023/01/26 14:28:30;;;;;;;47.25;28.73;;;;;;;;;;10372824;28;20071;-69
2023/01/26 14:33:29;;;;;;;62.55;36.97;;;;;;;;;;10375249;28;20488;-68
2023/01/26 14:38:31;;;;;;;62.72;39.33;;;;;;;;;;10372905;28;20075;-69
2023/01/26 14:43:30;;;;;;;58.63;36.65;;;;;;;;;;10362311;28;20079;-68
2023/01/26 14:48:31;;;;;;;49.75;30.25;;;;;;;;;;10365083;28;20067;-70
2023/01/26 14:53:31;;;;;;;56.30;33.00;;;;;;;;;;10332523;28;20103;-67
2023/01/26 14:58:30;;;;;;;56.95;33.78;;;;;;;;;;10350842;28;20060;-69
2023/01/26 15:03:29;;;;;;;62.05;34.58;;;;;;;;;;10340014;28;20076;-68
2023/01/26 15:08:27;;;;;;;58.45;32.95;;;;;;;;;;10344086;28;20068;-69
2023/01/26 15:13:30;;;;;;;58.83;30.40;;;;;;;;;;10359650;28;20082;-69
2023/01/26 15:18:31;;;;;;;43.90;28.92;;;;;;;;;;10343265;28;20076;-69
2023/01/26 15:23:30;;;;;;;69.88;44.67;;;;;;;;;;10322368;28;20076;-70
2023/01/26 15:28:29;;;;;;;55.55;37.38;;;;;;;;;;10354122;28;20075;-69
2023/01/26 15:33:38;;;;;;;44.45;30.88;;;;;;;;;;10348044;28;20066;-68
2023/01/26 15:38:36;;;;;;;45.58;31.90;;;;;;;;;;10367354;28;20084;-70
2023/01/26 15:43:35;;;;;;;35.95;26.40;;;;;;;;;;10359332;28;20071;-70
2023/01/26 15:48:34;;;;;;;38.88;30.02;;;;;;;;;;10368976;28;20083;-70
2023/01/26 15:53:32;;;;;;;31.40;24.27;;;;;;;;;;10361171;28;20076;-69
2023/01/26 15:58:33;;;;;;;43.88;29.58;;;;;;;;;;10341315;28;20087;-68
2023/01/26 16:03:33;;;;;;;41.03;26.92;;;;;;;;;;10355749;28;20070;-70
2023/01/26 16:08:31;;;;;;;38.83;27.83;;;;;;;;;;10362637;28;20102;-69
2023/01/26 16:13:29;;;;;;;39.42;29.60;;;;;;;;;;10366978;28;20463;-70
2023/01/26 16:18:31;;;;;;;54.03;33.67;;;;;;;;;;10359493;28;20068;-69
2023/01/26 16:23:30;;;;;;;64.38;42.70;;;;;;;;;;10351590;28;20066;-69
2023/01/26 16:28:29;;;;;;;50.03;31.08;;;;;;;;;;10373071;28;20063;-70
2023/01/26 16:33:27;;;;;;;67.18;40.25;;;;;;;;;;10363797;28;20485;-69
2023/01/26 16:38:25;;;;;;;59.75;37.13;;;;;;;;;;10356027;28;20067;-68
2023/01/26 16:43:26;;;;;;;81.00;49.55;;;;;;;;;;10367122;28;20627;-68
2023/01/26 16:48:24;;;;;;;98.93;59.28;;;;;;;;;;10344751;28;20564;-68
2023/01/26 16:53:26;;;;;;;92.88;54.30;;;;;;;;;;10351240;28;20509;-69
2023/01/26 16:58:26;;;;;;;75.45;42.53;;;;;;;;;;10366688;28;20067;-70
2023/01/26 17:03:24;;;;;;;73.32;45.47;;;;;;;;;;10348643;28;20071;-70
2023/01/26 17:08:22;;;;;;;70.03;46.92;;;;;;;;;;10362309;28;20607;-70
2023/01/26 17:13:20;;;;;;;71.88;45.70;;;;;;;;;;10354824;28;20079;-69
2023/01/26 17:18:20;;;;;;;67.18;43.42;;;;;;;;;;10347761;28;20070;-69
2023/01/26 17:23:18;;;;;;;76.85;48.17;;;;;;;;;;10348498;28;20087;-69
2023/01/26 17:28:16;;;;;;;49.72;35.08;;;;;;;;;;10364233;28;20107;-68
2023/01/26 17:33:14;;;;;;;43.83;29.08;;;;;;;;;;10376539;28;20068;-68
2023/01/26 17:38:14;;;;;;;70.13;49.20;;;;;;;;;;10379202;28;20078;-69
2023/01/26 17:43:12;;;;;;;100.53;60.78;;;;;;;;;;10384011;28;20072;-68
2023/01/26 17:48:10;;;;;;;55.65;39.35;;;;;;;;;;10380450;28;20083;-68
2023/01/26 17:53:08;;;;;;;59.53;40.85;;;;;;;;;;10381540;28;20074;-69
2023/01/26 17:58:09;;;;;;;44.75;32.28;;;;;;;;;;10378475;28;20091;-68
2023/01/26 18:03:09;;;;;;;39.53;27.88;;;;;;;;;;10365303;28;20072;-69
2023/01/26 18:08:07;;;;;;;35.00;22.98;;;;;;;;;;10356442;28;20504;-68
2023/01/26 18:13:08;;;;;;;29.05;20.65;;;;;;;;;;10357902;28;20071;-68
2023/01/26 18:18:06;;;;;;;34.75;22.02;;;;;;;;;;10364710;28;20070;-68
2023/01/26 18:23:07;;;;;;;29.33;19.75;;;;;;;;;;10379058;28;20071;-68
2023/01/26 18:28:05;;;;;;;28.40;22.27;;;;;;;;;;10378449;28;20060;-68
2023/01/26 18:33:06;;;;;;;41.50;30.52;;;;;;;;;;10381506;28;20504;-69
2023/01/26 18:38:05;;;;;;;27.00;20.08;;;;;;;;;;10362773;28;20464;-68
2023/01/26 18:43:04;;;;;;;41.03;25.90;;;;;;;;;;10358575;28;20079;-68
2023/01/26 18:48:04;;;;;;;25.88;20.17;;;;;;;;;;10353087;28;20518;-67
2023/01/26 18:53:08;;;;;;;22.67;18.33;;;;;;;;;;10357473;28;20072;-68
2023/01/26 18:58:06;;;;;;;28.88;20.00;;;;;;;;;;10343031;28;20502;-68
2023/01/26 19:03:04;;;;;;;28.73;19.55;;;;;;;;;;10350053;28;20075;-68
2023/01/26 19:08:09;;;;;;;24.65;17.75;;;;;;;;;;10337541;28;20072;-69
2023/01/26 19:13:09;;;;;;;34.30;23.98;;;;;;;;;;10344134;28;20079;-68
2023/01/26 19:18:08;;;;;;;30.33;21.60;;;;;;;;;;10356818;28;20432;-68
2023/01/26 19:23:06;;;;;;;33.53;19.85;;;;;;;;;;10353639;28;20063;-69
2023/01/26 19:28:04;;;;;;;32.85;21.13;;;;;;;;;;10349228;28;20072;-69
2023/01/26 19:38:20;;;;;;;34.25;23.20;;;;;;;;;;10357606;28;20080;-68
2023/01/26 19:43:19;;;;;;;43.75;28.60;;;;;;;;;;10359719;28;20071;-68
2023/01/26 19:48:19;;;;;;;54.22;35.95;;;;;;;;;;10363140;28;20075;-68
2023/01/26 19:53:18;;;;;;;42.00;27.33;;;;;;;;;;10367861;28;20093;-68
2023/01/26 19:58:16;;;;;;;33.05;23.63;;;;;;;;;;10352198;28;20072;-68
2023/01/26 20:03:15;;;;;;;45.65;27.48;;;;;;;;;;10364661;28;20063;-68
2023/01/26 20:08:16;;;;;;;32.70;20.83;;;;;;;;;;10361804;28;20079;-68
2023/01/26 20:13:16;;;;;;;35.13;21.20;;;;;;;;;;10359114;28;20075;-68
2023/01/26 20:18:14;;;;;;;25.55;19.67;;;;;;;;;;10367769;28;20072;-67
2023/01/26 20:23:12;;;;;;;28.45;20.13;;;;;;;;;;10360893;28;20068;-66
2023/01/26 20:28:13;;;;;;;31.48;19.75;;;;;;;;;;10366848;28;20094;-67
2023/01/26 20:33:12;;;;;;;29.83;19.92;;;;;;;;;;10367939;28;20074;-67
2023/01/26 20:38:10;;;;;;;25.00;18.33;;;;;;;;;;10368838;28;20087;-67
2023/01/26 20:43:12;;;;;;;20.23;17.27;;;;;;;;;;10334498;28;20368;-69
2023/01/26 20:48:10;;;;;;;27.08;22.10;;;;;;;;;;10317161;28;20516;-68
2023/01/26 20:53:09;;;;;;;32.67;23.67;;;;;;;;;;10329361;28;20076;-66
2023/01/26 20:58:08;;;;;;;38.38;25.60;;;;;;;;;;10330519;28;20488;-67
2023/01/26 21:03:07;;;;;;;27.83;21.90;;;;;;;;;;10331003;28;20068;-67
2023/01/26 21:08:07;;;;;;;31.50;23.35;;;;;;;;;;10324654;28;20079;-69
2023/01/26 21:13:05;;;;;;;32.55;23.35;;;;;;;;;;10331236;28;20072;-67
2023/01/26 21:18:04;;;;;;;35.35;26.35;;;;;;;;;;10323866;28;20064;-69
2023/01/26 21:23:03;;;;;;;25.42;21.80;;;;;;;;;;10326755;28;20079;-67
2023/01/26 21:28:01;;;;;;;27.83;22.67;;;;;;;;;;10328334;28;20082;-67
2023/01/26 21:32:59;;;;;;;30.92;24.00;;;;;;;;;;10328566;28;20094;-67
2023/01/26 21:37:58;;;;;;;26.15;20.90;;;;;;;;;;10330329;28;20087;-68
2023/01/26 21:42:57;;;;;;;30.83;20.90;;;;;;;;;;10332370;28;20068;-68
2023/01/26 21:53:07;;;;;;;29.65;22.85;;;;;;;;;;10338498;28;20071;-68
2023/01/26 22:03:23;;;;;;;32.03;23.48;;;;;;;;;;10332978;28;20083;-67
2023/01/26 22:08:21;;;;;;;35.55;26.83;;;;;;;;;;10328942;28;20091;-67
2023/01/26 22:13:20;;;;;;;32.30;22.52;;;;;;;;;;10330950;28;20079;-68
2023/01/26 22:18:18;;;;;;;38.65;25.60;;;;;;;;;;10332699;28;20765;-67
2023/01/26 22:23:17;;;;;;;31.13;21.95;;;;;;;;;;10333192;28;20060;-67
2023/01/26 22:28:15;;;;;;;32.80;22.17;;;;;;;;;;10333634;28;20095;-68
2023/01/26 22:33:14;;;;;;;32.63;23.92;;;;;;;;;;10333333;28;20064;-68
2023/01/26 22:38:13;;;;;;;35.33;23.02;;;;;;;;;;10334419;28;20517;-68
2023/01/26 22:43:11;;;;;;;36.17;23.25;;;;;;;;;;10328826;28;20068;-68
2023/01/26 22:48:09;;;;;;;36.35;24.83;;;;;;;;;;10335099;28;20074;-68
2023/01/26 22:53:08;;;;;;;38.42;25.95;;;;;;;;;;10332698;28;20094;-68
2023/01/26 22:58:07;;;;;;;37.97;26.05;;;;;;;;;;10333762;28;20389;-68
2023/01/26 23:03:05;;;;;;;33.72;22.63;;;;;;;;;;10333581;28;20072;-66
2023/01/26 23:08:03;;;;;;;32.75;23.50;;;;;;;;;;10332665;28;20166;-68
2023/01/26 23:13:03;;;;;;;31.67;21.60;;;;;;;;;;10331776;28;20067;-67
2023/01/26 23:18:01;;;;;;;36.22;24.63;;;;;;;;;;10330312;28;20084;-67
2023/01/26 23:22:59;;;;;;;32.17;22.73;;;;;;;;;;10332738;28;20182;-67
2023/01/26 23:27:57;;;;;;;30.95;20.95;;;;;;;;;;10331446;28;20086;-67
2023/01/26 23:32:57;;;;;;;33.00;22.45;;;;;;;;;;10333579;28;20059;-67
2023/01/26 23:37:55;;;;;;;28.33;20.95;;;;;;;;;;10332513;28;20083;-67
2023/01/26 23:42:53;;;;;;;36.15;23.23;;;;;;;;;;10331979;28;20369;-67
2023/01/26 23:48:13;;;;;;;31.58;22.38;;;;;;;;;;10334003;28;20068;-67
2023/01/26 23:53:11;;;;;;;27.25;20.55;;;;;;;;;;10327793;28;20071;-68
2023/01/26 23:58:10;;;;;;;36.08;20.77;;;;;;;;;;10330953;28;20060;-67
